Time;durP1;ratioP1;P1;durP2;ratioP2;P2;SDS_P1;SDS_P2;PMS_P1;PMS_P2;Temp;Humidity;BMP_temperature;BMP_pressure;BME280_temperature;BME280_humidity;BME280_pressure;Samples;Min_cycle;Max_cycle;Signal;HPM_P1;HPM_P2
2023/05/09 00:00:01;;;;;;;330.35;132.23;;;;;;;13.03;100.00;99927.50;316998;31;1332;-74
2023/05/09 00:00:11;;;;;;;332.27;132.90;;;;;;;12.99;100.00;99919.78;316339;30;2212;-74
2023/05/09 00:00:22;;;;;;;333.00;134.75;;;;;;;12.99;100.00;99925.03;315773;31;2693;-74
2023/05/09 00:00:32;;;;;;;336.47;137.73;;;;;;;12.99;100.00;99922.41;313963;31;815;-75
2023/05/09 00:00:43;;;;;;;336.00;138.90;;;;;;;13.05;100.00;99923.88;313983;31;2867;-75
2023/05/09 00:00:53;;;;;;;334.87;138.30;;;;;;;13.06;100.00;99927.34;311464;31;3213;-75
2023/05/09 00:01:10;;;;;;;332.85;135.88;;;;;;;12.98;100.00;99925.97;315119;31;909;-75
2023/05/09 00:01:20;;;;;;;329.35;130.70;;;;;;;12.97;100.00;99926.88;309484;31;945;-75
2023/05/09 00:01:31;;;;;;;326.80;127.57;;;;;;;12.97;100.00;99919.00;310957;31;3453;-74
2023/05/09 00:01:42;;;;;;;329.63;129.53;;;;;;;12.99;100.00;99926.81;309903;31;3383;-74
2023/05/09 00:01:53;;;;;;;334.90;133.60;;;;;;;13.02;100.00;99928.41;305512;31;5868;-74
2023/05/09 00:02:03;;;;;;;338.93;138.50;;;;;;;13.04;100.00;99924.78;305437;32;5259;-74
2023/05/09 00:02:14;;;;;;;340.55;138.57;;;;;;;13.07;100.00;99927.28;306335;32;2207;-74
2023/05/09 00:02:24;;;;;;;337.87;136.00;;;;;;;13.04;100.00;99927.41;307729;31;5334;-74
2023/05/09 00:02:34;;;;;;;334.40;131.27;;;;;;;12.91;100.00;99919.28;308377;32;1517;-74
2023/05/09 00:02:45;;;;;;;331.77;130.10;;;;;;;12.87;100.00;99920.34;308177;31;3781;-74
2023/05/09 00:02:55;;;;;;;333.85;131.20;;;;;;;12.89;100.00;99923.75;305195;32;4150;-74
2023/05/09 00:03:06;;;;;;;333.63;132.03;;;;;;;12.91;100.00;99921.06;305143;32;884;-74
2023/05/09 00:03:16;;;;;;;332.02;129.00;;;;;;;12.93;100.00;99922.69;313849;31;4557;-75
2023/05/09 00:03:26;;;;;;;329.07;129.17;;;;;;;12.96;100.00;99922.53;308617;31;4529;-75
2023/05/09 00:03:37;;;;;;;331.67;132.30;;;;;;;12.88;100.00;99919.41;302483;31;4639;-74
2023/05/09 00:03:50;;;;;;;334.48;136.95;;;;;;;12.83;100.00;99931.91;309525;31;831;-74
2023/05/09 00:04:00;;;;;;;335.33;133.48;;;;;;;12.73;100.00;99917.47;303653;32;4065;-75
2023/05/09 00:04:11;;;;;;;334.93;130.33;;;;;;;12.75;100.00;99915.63;303784;32;2881;-75
2023/05/09 00:04:21;;;;;;;334.98;130.07;;;;;;;12.74;100.00;99928.81;306338;32;1075;-75
2023/05/09 00:04:31;;;;;;;333.87;131.67;;;;;;;12.74;100.00;99927.06;304560;32;3516;-75
2023/05/09 00:04:42;;;;;;;333.30;133.63;;;;;;;12.77;100.00;99926.06;302811;32;3956;-74
2023/05/09 00:04:52;;;;;;;334.40;135.13;;;;;;;12.78;100.00;99925.16;300121;32;5353;-74
2023/05/09 00:05:04;;;;;;;337.50;136.60;;;;;;;12.74;100.00;99921.81;299941;32;1390;-74
2023/05/09 00:05:14;;;;;;;337.00;133.40;;;;;;;12.73;100.00;99919.25;299788;32;5293;-74
2023/05/09 00:05:25;;;;;;;335.77;130.43;;;;;;;12.75;100.00;99918.25;300558;32;6159;-74
2023/05/09 00:05:35;;;;;;;334.98;130.40;;;;;;;12.72;100.00;99926.25;302059;32;1356;-74
2023/05/09 00:05:45;;;;;;;333.20;131.37;;;;;;;12.75;100.00;99923.50;298048;32;6547;-74
2023/05/09 00:05:56;;;;;;;334.67;132.53;;;;;;;12.70;100.00;99919.38;299882;32;6062;-74
2023/05/09 00:06:06;;;;;;;335.57;132.67;;;;;;;12.74;100.00;99915.69;299166;33;877;-74
2023/05/09 00:06:18;;;;;;;335.35;130.80;;;;;;;12.77;100.00;99921.66;294860;33;1195;-74
2023/05/09 00:06:28;;;;;;;333.00;130.02;;;;;;;12.79;100.00;99922.44;294782;33;4101;-74
2023/05/09 00:06:39;;;;;;;335.07;131.27;;;;;;;12.79;100.00;99914.56;294273;33;5257;-74
2023/05/09 00:06:49;;;;;;;336.90;132.75;;;;;;;12.82;100.00;99927.56;292751;33;1279;-74
2023/05/09 00:07:00;;;;;;;338.37;134.23;;;;;;;12.86;100.00;99923.88;286230;34;6331;-74
2023/05/09 00:07:10;;;;;;;338.08;134.10;;;;;;;12.88;100.00;99919.41;287564;33;6108;-74
2023/05/09 00:07:21;;;;;;;337.77;134.50;;;;;;;12.81;100.00;99917.97;292082;33;855;-74
2023/05/09 00:07:31;;;;;;;335.38;131.10;;;;;;;12.73;100.00;99920.09;287984;34;8959;-74
2023/05/09 00:07:42;;;;;;;336.07;131.23;;;;;;;12.73;100.00;99924.50;286855;34;8373;-74
2023/05/09 00:07:52;;;;;;;337.38;129.73;;;;;;;12.69;100.00;99923.78;285041;34;9415;-74
2023/05/09 00:08:03;;;;;;;337.37;132.47;;;;;;;12.72;100.00;99923.63;284472;34;908;-74
2023/05/09 00:08:14;;;;;;;336.95;131.95;;;;;;;12.75;100.00;99923.50;282329;34;8537;-74
2023/05/09 00:08:24;;;;;;;335.52;133.18;;;;;;;12.70;100.00;99920.22;282716;34;8314;-74
2023/05/09 00:08:36;;;;;;;337.00;134.10;;;;;;;12.70;100.00;99919.38;283558;34;1434;-74
2023/05/09 00:08:47;;;;;;;335.90;134.10;;;;;;;12.68;100.00;99927.31;282725;35;936;-74
2023/05/09 00:08:57;;;;;;;336.50;133.27;;;;;;;12.64;100.00;99923.13;278433;35;7039;-74
2023/05/09 00:10:44;;;;;;;322.42;122.46;;;;;;;12.79;100.00;99917.19;2500282;27;20936;-74
2023/05/09 00:10:54;;;;;;;328.03;129.27;;;;;;;12.83;100.00;99921.38;350887;28;3562;-74
2023/05/09 00:11:04;;;;;;;327.75;130.10;;;;;;;12.89;100.00;99921.13;349490;28;5065;-74
2023/05/09 00:11:15;;;;;;;333.23;133.83;;;;;;;12.91;100.00;99919.28;348085;28;3071;-74
2023/05/09 00:11:25;;;;;;;334.17;133.07;;;;;;;12.97;100.00;99918.16;347410;28;1337;-74
2023/05/09 00:11:36;;;;;;;334.60;133.03;;;;;;;13.00;100.00;99923.22;349129;28;3365;-74
2023/05/09 00:11:46;;;;;;;331.58;131.68;;;;;;;13.02;100.00;99920.53;348771;28;872;-74
2023/05/09 00:11:57;;;;;;;330.20;131.10;;;;;;;13.03;100.00;99922.25;348792;28;827;-74
2023/05/09 00:12:08;;;;;;;330.02;131.60;;;;;;;13.05;100.00;99920.38;348728;28;1286;-74
2023/05/09 00:12:18;;;;;;;331.00;131.93;;;;;;;13.08;100.00;99925.50;347474;28;951;-74
2023/05/09 00:12:28;;;;;;;331.47;132.50;;;;;;;13.10;100.00;99924.50;348830;28;904;-74
2023/05/09 00:12:39;;;;;;;332.83;134.40;;;;;;;13.12;100.00;99921.81;348852;28;1039;-74
2023/05/09 00:12:50;;;;;;;332.35;133.38;;;;;;;13.16;100.00;99923.41;348114;28;1445;-74
2023/05/09 00:13:00;;;;;;;332.85;132.27;;;;;;;13.18;100.00;99926.81;350006;28;1334;-74
2023/05/09 00:13:11;;;;;;;332.10;132.90;;;;;;;13.18;100.00;99926.81;348861;28;877;-74
2023/05/09 00:13:22;;;;;;;331.33;133.80;;;;;;;13.12;100.00;99932.31;348862;28;1283;-74
2023/05/09 00:13:33;;;;;;;331.73;136.23;;;;;;;13.07;100.00;99923.81;347360;28;1512;-74
2023/05/09 00:13:43;;;;;;;331.90;136.45;;;;;;;13.04;100.00;99918.69;347543;28;969;-74
2023/05/09 00:13:54;;;;;;;332.52;136.25;;;;;;;13.03;100.00;99922.25;349625;28;792;-74
2023/05/09 00:14:05;;;;;;;331.13;134.60;;;;;;;13.01;100.00;99924.94;348655;28;1231;-74
2023/05/09 00:14:17;;;;;;;331.02;133.18;;;;;;;13.03;100.00;99919.59;348890;28;855;-73
2023/05/09 00:14:27;;;;;;;331.52;130.98;;;;;;;13.04;100.00;99924.78;348534;28;1316;-73
2023/05/09 00:14:39;;;;;;;333.13;130.35;;;;;;;13.06;100.00;99922.09;349997;28;1239;-73
2023/05/09 00:14:50;;;;;;;333.00;132.02;;;;;;;13.06;100.00;99917.69;349033;28;1490;-73
2023/05/09 00:15:00;;;;;;;334.25;132.75;;;;;;;13.11;100.00;99928.00;348780;28;922;-73
2023/05/09 00:15:12;;;;;;;331.97;131.97;;;;;;;13.10;100.00;99923.66;347573;28;927;-73
2023/05/09 00:15:22;;;;;;;329.83;131.55;;;;;;;13.09;100.00;99922.81;345977;28;1290;-73
2023/05/09 00:15:33;;;;;;;330.27;132.73;;;;;;;13.09;100.00;99924.59;343450;28;820;-74
2023/05/09 00:15:43;;;;;;;330.33;133.50;;;;;;;13.10;100.00;99929.78;343472;28;777;-74
2023/05/09 00:15:54;;;;;;;331.43;133.83;;;;;;;13.13;100.00;99929.63;344645;28;1411;-74
2023/05/09 00:16:04;;;;;;;331.13;131.37;;;;;;;13.16;100.00;99926.03;345033;28;1260;-74
2023/05/09 00:16:15;;;;;;;333.55;132.73;;;;;;;13.17;100.00;99930.38;343238;28;1397;-74
2023/05/09 00:16:27;;;;;;;333.63;132.38;;;;;;;13.19;100.00;99924.13;345585;28;899;-74
2023/05/09 00:16:38;;;;;;;331.67;134.85;;;;;;;13.22;100.00;99933.66;344015;28;1576;-74
2023/05/09 00:16:49;;;;;;;330.48;135.02;;;;;;;13.14;100.00;99923.44;340997;28;1610;-74
2023/05/09 00:16:59;;;;;;;329.30;136.05;;;;;;;13.14;100.00;99927.84;343976;28;1130;-74
2023/05/09 00:17:13;;;;;;;329.83;137.33;;;;;;;13.13;100.00;99926.16;345445;28;1087;-74
2023/05/09 00:17:23;;;;;;;332.08;137.98;;;;;;;13.04;100.00;99927.41;346655;28;1552;-74
2023/05/09 00:17:35;;;;;;;336.52;136.93;;;;;;;13.00;100.00;99924.09;345906;28;1305;-74
2023/05/09 00:17:46;;;;;;;335.17;134.13;;;;;;;12.99;100.00;99917.16;345851;28;1448;-74
2023/05/09 00:17:56;;;;;;;333.83;132.23;;;;;;;13.00;100.00;99917.97;341780;28;1299;-74
2023/05/09 00:18:07;;;;;;;329.67;130.27;;;;;;;12.93;100.00;99922.69;345211;28;1036;-74
2023/05/09 00:18:17;;;;;;;330.83;130.03;;;;;;;12.90;100.00;99922.81;344838;28;1081;-74
2023/05/09 00:18:29;;;;;;;331.33;130.83;;;;;;;12.95;100.00;99927.88;343076;28;1291;-74
2023/05/09 00:18:41;;;;;;;332.67;133.32;;;;;;;12.94;100.00;99919.13;343725;28;1308;-74
2023/05/09 00:18:51;;;;;;;334.35;136.40;;;;;;;12.99;100.00;99924.19;343084;28;1397;-74
2023/05/09 00:19:02;;;;;;;333.35;134.88;;;;;;;12.99;100.00;99924.19;340611;29;1325;-74
2023/05/09 00:19:13;;;;;;;332.67;134.02;;;;;;;13.04;100.00;99923.94;338984;29;821;-74
2023/05/09 00:19:23;;;;;;;331.60;132.50;;;;;;;13.08;100.00;99925.50;337914;29;1598;-74
2023/05/09 00:19:34;;;;;;;330.40;133.57;;;;;;;13.06;100.00;99922.09;338974;29;1975;-74
2023/05/09 00:19:44;;;;;;;330.73;135.97;;;;;;;12.98;100.00;99920.69;336855;29;1269;-74
2023/05/09 00:19:54;;;;;;;329.92;136.93;;;;;;;12.92;100.00;99918.34;334500;29;1339;-74
2023/05/09 00:20:08;;;;;;;331.33;136.10;;;;;;;12.94;100.00;99927.00;335671;29;1286;-74
2023/05/09 00:20:18;;;;;;;331.40;132.52;;;;;;;12.93;100.00;99916.56;334229;29;1381;-74
2023/05/09 00:20:29;;;;;;;332.37;133.20;;;;;;;12.92;100.00;99923.59;328520;29;2902;-74
2023/05/09 00:20:43;;;;;;;334.80;136.50;;;;;;;12.94;100.00;99929.66;332292;29;3082;-74
2023/05/09 00:20:53;;;;;;;337.75;139.18;;;;;;;12.97;100.00;99926.88;333078;29;3348;-74
2023/05/09 00:21:04;;;;;;;337.57;138.73;;;;;;;12.96;100.00;99914.66;335885;29;1806;-74
2023/05/09 00:21:14;;;;;;;333.05;133.50;;;;;;;12.97;100.00;99919.00;330944;29;1358;-74
2023/05/09 00:21:24;;;;;;;330.43;133.13;;;;;;;12.92;100.00;99923.59;331877;29;2119;-74
2023/05/09 00:21:35;;;;;;;330.95;132.98;;;;;;;12.92;100.00;99923.59;331090;29;2247;-74
2023/05/09 00:21:45;;;;;;;334.80;136.53;;;;;;;12.90;100.00;99914.94;331607;29;1028;-74
2023/05/09 00:21:56;;;;;;;336.17;137.00;;;;;;;12.88;100.00;99916.78;329225;29;1593;-74
2023/05/09 00:22:08;;;;;;;332.95;134.82;;;;;;;12.88;100.00;99922.03;329814;29;1226;-74
2023/05/09 00:22:20;;;;;;;330.00;133.23;;;;;;;12.87;100.00;99916.84;329011;29;1285;-74
2023/05/09 00:22:30;;;;;;;330.80;132.85;;;;;;;12.84;100.00;99912.59;328083;30;880;-74
2023/05/09 00:22:41;;;;;;;333.48;135.15;;;;;;;12.85;100.00;99923.94;326427;30;1848;-74
2023/05/09 00:22:51;;;;;;;336.53;136.23;;;;;;;12.86;100.00;99925.66;326643;29;1965;-74
2023/05/09 00:23:01;;;;;;;338.17;136.75;;;;;;;12.80;100.00;99916.28;330453;29;834;-74
2023/05/09 00:23:12;;;;;;;336.93;136.33;;;;;;;12.87;100.00;99922.97;331044;29;2446;-74
2023/05/09 00:23:22;;;;;;;334.13;135.63;;;;;;;12.85;100.00;99918.69;326081;30;2499;-74
2023/05/09 00:23:33;;;;;;;332.08;135.77;;;;;;;12.85;100.00;99929.19;324062;29;2319;-74
2023/05/09 00:23:45;;;;;;;331.30;135.25;;;;;;;12.81;100.00;99923.22;325504;30;1429;-74
2023/05/09 00:23:56;;;;;;;331.58;134.25;;;;;;;12.78;100.00;99917.25;327277;30;2505;-74
2023/05/09 00:24:06;;;;;;;329.67;132.53;;;;;;;12.77;100.00;99932.16;324997;30;1799;-74
2023/05/09 00:24:16;;;;;;;329.83;130.80;;;;;;;12.77;100.00;99921.66;325811;30;722;-74
2023/05/09 00:24:27;;;;;;;330.43;130.63;;;;;;;12.82;100.00;99924.94;320959;30;1417;-74
2023/05/09 00:24:37;;;;;;;331.42;130.52;;;;;;;12.87;100.00;99912.44;323932;30;1870;-74
2023/05/09 00:24:48;;;;;;;330.60;132.37;;;;;;;12.92;100.00;99925.38;325028;30;2609;-73
2023/05/09 00:24:58;;;;;;;334.90;134.50;;;;;;;12.97;100.00;99921.63;323211;30;876;-73
2023/05/09 00:25:09;;;;;;;337.10;136.40;;;;;;;13.02;100.00;99920.53;322346;30;2813;-73
2023/05/09 00:25:19;;;;;;;335.80;136.00;;;;;;;13.05;100.00;99928.28;322860;30;3589;-72
2023/05/09 00:25:30;;;;;;;333.10;134.80;;;;;;;13.05;100.00;99918.63;322144;30;849;-74
2023/05/09 00:25:41;;;;;;;332.77;134.53;;;;;;;13.05;100.00;99930.91;320047;30;4073;-73
2023/05/09 00:25:52;;;;;;;333.77;135.77;;;;;;;13.02;100.00;99923.16;319846;30;3354;-74
2023/05/09 00:26:02;;;;;;;334.67;136.88;;;;;;;12.99;100.00;99926.81;319093;31;1233;-74
2023/05/09 00:26:12;;;;;;;337.57;139.63;;;;;;;13.00;100.00;99924.09;313720;31;3338;-73
2023/05/09 00:26:23;;;;;;;334.92;136.88;;;;;;;13.05;100.00;99920.38;309811;31;2508;-73
2023/05/09 00:26:33;;;;;;;335.10;136.70;;;;;;;13.08;100.00;99923.72;310896;31;1985;-73
2023/05/09 00:26:43;;;;;;;332.30;133.18;;;;;;;13.11;100.00;99925.38;316398;31;865;-73
2023/05/09 00:26:54;;;;;;;334.93;136.60;;;;;;;13.13;100.00;99924.38;320518;30;2803;-73
2023/05/09 00:27:04;;;;;;;333.60;135.77;;;;;;;13.17;100.00;99927.75;318793;30;4350;-73
2023/05/09 00:27:15;;;;;;;336.13;137.73;;;;;;;13.16;100.00;99931.28;313981;31;1331;-74
2023/05/09 00:27:25;;;;;;;334.10;136.23;;;;;;;13.10;100.00;99924.50;310640;31;4341;-74
2023/05/09 00:27:36;;;;;;;330.95;136.10;;;;;;;13.03;100.00;99923.09;310252;31;5541;-74
2023/05/09 00:27:46;;;;;;;330.30;135.70;;;;;;;13.04;100.00;99923.94;311705;31;1089;-74
2023/05/09 00:27:57;;;;;;;331.67;135.35;;;;;;;13.02;100.00;99926.63;306644;32;4931;-74
2023/05/09 00:28:07;;;;;;;333.37;135.90;;;;;;;12.99;100.00;99921.56;307906;31;4532;-74
2023/05/09 00:28:18;;;;;;;333.40;136.20;;;;;;;12.95;100.00;99922.63;308481;32;1362;-74
2023/05/09 00:28:29;;;;;;;334.80;135.82;;;;;;;12.95;100.00;99926.09;302088;32;1506;-74
2023/05/09 00:28:40;;;;;;;335.77;137.45;;;;;;;12.95;100.00;99928.72;301300;32;3305;-74
2023/05/09 00:28:50;;;;;;;334.80;138.40;;;;;;;12.91;100.00;99921.06;299713;32;3296;-74
2023/05/09 00:29:00;;;;;;;335.27;140.70;;;;;;;12.85;100.00;99930.06;294943;33;1295;-74
2023/05/09 00:29:11;;;;;;;335.40;138.77;;;;;;;12.81;100.00;99928.50;296802;33;4369;-74
2023/05/09 00:29:21;;;;;;;335.75;138.50;;;;;;;12.81;100.00;99919.75;294725;33;6213;-74
2023/05/09 00:29:32;;;;;;;334.93;136.30;;;;;;;12.86;100.00;99926.50;296306;33;3786;-73
2023/05/09 00:29:42;;;;;;;336.58;138.05;;;;;;;12.87;100.00;99925.59;294794;32;6915;-73
2023/05/09 00:29:53;;;;;;;337.03;139.73;;;;;;;12.85;100.00;99924.81;296572;32;7028;-73
2023/05/09 00:30:04;;;;;;;339.08;141.77;;;;;;;12.88;100.00;99929.91;297694;33;6716;-73
2023/05/09 00:30:14;;;;;;;338.35;142.25;;;;;;;12.90;100.00;99925.44;296122;33;838;-73
2023/05/09 00:30:25;;;;;;;336.08;139.80;;;;;;;12.92;100.00;99928.00;293384;33;6150;-73
2023/05/09 00:30:35;;;;;;;334.57;138.73;;;;;;;12.94;100.00;99926.16;290369;33;6551;-73
2023/05/09 00:30:45;;;;;;;334.53;136.37;;;;;;;12.94;100.00;99921.75;288366;34;954;-73
2023/05/09 00:30:56;;;;;;;336.65;137.70;;;;;;;12.94;100.00;99924.38;290330;33;5118;-73
2023/05/09 00:31:06;;;;;;;333.57;134.53;;;;;;;12.94;100.00;99929.66;290787;33;5545;-74
2023/05/09 00:31:17;;;;;;;330.25;132.98;;;;;;;12.92;100.00;99934.13;290550;34;1524;-74
2023/05/09 00:31:27;;;;;;;328.53;130.70;;;;;;;12.85;100.00;99934.47;284796;34;6551;-74
2023/05/09 00:31:37;;;;;;;329.63;131.65;;;;;;;12.81;100.00;99930.25;282860;34;8578;-74
2023/05/09 00:31:48;;;;;;;329.47;132.40;;;;;;;12.80;100.00;99931.19;281349;34;4582;-74
2023/05/09 00:31:58;;;;;;;329.20;135.18;;;;;;;12.78;100.00;99928.63;280167;35;756;-74
2023/05/09 00:32:09;;;;;;;328.77;134.60;;;;;;;12.72;100.00;99923.63;276359;35;10375;-74
2023/05/09 00:32:20;;;;;;;329.15;132.55;;;;;;;12.75;100.00;99928.75;275590;35;9464;-73
2023/05/09 00:32:31;;;;;;;329.60;131.40;;;;;;;12.77;100.00;99932.16;277445;35;1104;-73
2023/05/09 00:32:42;;;;;;;330.92;132.82;;;;;;;12.74;100.00;99931.44;273129;35;8360;-73
2023/05/09 00:34:55;;;;;;;325.70;126.54;;;;;;;13.10;100.00;99931.53;2498734;27;20476;-73
2023/05/09 00:35:07;;;;;;;332.47;131.53;;;;;;;13.12;100.00;99933.19;353136;28;1296;-73
2023/05/09 00:35:18;;;;;;;335.42;134.38;;;;;;;13.16;100.00;99933.94;348983;28;757;-74
2023/05/09 00:35:30;;;;;;;334.77;135.18;;;;;;;13.16;100.00;99934.78;347517;28;761;-73
2023/05/09 00:35:40;;;;;;;331.77;132.93;;;;;;;13.12;100.00;99932.31;350274;28;840;-73
2023/05/09 00:35:50;;;;;;;331.60;132.67;;;;;;;13.03;100.00;99930.13;348735;28;1602;-73
2023/05/09 00:36:01;;;;;;;331.17;132.83;;;;;;;13.03;100.00;99927.50;347325;28;958;-73
2023/05/09 00:36:11;;;;;;;332.75;134.38;;;;;;;13.02;100.00;99931.03;347655;28;1424;-73
2023/05/09 00:36:22;;;;;;;332.73;133.80;;;;;;;13.03;100.00;99930.97;348775;28;1313;-73
2023/05/09 00:36:32;;;;;;;331.95;131.60;;;;;;;13.07;100.00;99929.06;349201;28;1437;-73
2023/05/09 00:36:43;;;;;;;330.65;129.88;;;;;;;13.09;100.00;99932.47;350249;28;1372;-73
2023/05/09 00:36:53;;;;;;;332.90;132.67;;;;;;;13.12;100.00;99937.59;348578;28;1774;-73
2023/05/09 00:37:04;;;;;;;335.10;134.15;;;;;;;13.13;100.00;99937.50;348697;28;809;-73
2023/05/09 00:37:17;;;;;;;335.77;135.23;;;;;;;13.12;100.00;99937.59;350195;28;1021;-73
2023/05/09 00:37:29;;;;;;;334.13;131.88;;;;;;;13.10;100.00;99935.03;347530;28;859;-73
2023/05/09 00:37:39;;;;;;;333.10;130.85;;;;;;;13.11;100.00;99938.50;346580;28;1306;-73
2023/05/09 00:37:50;;;;;;;333.10;131.10;;;;;;;13.11;100.00;99938.50;345039;28;1207;-73
2023/05/09 00:38:00;;;;;;;333.57;133.47;;;;;;;13.07;100.00;99924.66;348093;28;1525;-73
2023/05/09 00:38:11;;;;;;;336.23;135.90;;;;;;;13.02;100.00;99936.28;349183;28;871;-73
2023/05/09 00:38:22;;;;;;;339.63;136.30;;;;;;;13.02;100.00;99926.63;348811;28;919;-73
2023/05/09 00:38:32;;;;;;;340.70;136.37;;;;;;;13.05;100.00;99933.53;345351;28;1202;-74
2023/05/09 00:38:42;;;;;;;341.15;144.68;;;;;;;13.03;100.00;99935.38;342198;28;3487;-74
2023/05/09 00:38:53;;;;;;;339.80;145.30;;;;;;;13.05;100.00;99934.38;349051;28;4908;-73
2023/05/09 00:39:04;;;;;;;337.70;143.50;;;;;;;12.92;100.00;99935.88;349445;28;4982;-74
2023/05/09 00:39:14;;;;;;;337.67;138.50;;;;;;;12.90;100.00;99941.22;347381;28;1393;-74
2023/05/09 00:39:25;;;;;;;338.77;139.63;;;;;;;12.88;100.00;99935.16;342314;28;3260;-74
2023/05/09 00:39:35;;;;;;;338.15;138.98;;;;;;;12.89;100.00;99936.88;345857;28;1299;-73
2023/05/09 00:39:48;;;;;;;333.90;136.63;;;;;;;12.94;100.00;99939.31;348798;28;1386;-73
2023/05/09 00:39:58;;;;;;;332.75;134.60;;;;;;;12.95;100.00;99935.75;346075;28;1286;-73
2023/05/09 00:40:09;;;;;;;335.07;135.60;;;;;;;13.02;100.00;99933.66;344762;28;725;-73
2023/05/09 00:40:20;;;;;;;335.40;136.07;;;;;;;12.99;100.00;99932.91;350519;28;1492;-73
2023/05/09 00:40:30;;;;;;;334.73;136.00;;;;;;;13.02;100.00;99933.66;348552;28;1245;-73
2023/05/09 00:40:41;;;;;;;333.07;134.07;;;;;;;13.05;100.00;99930.91;343782;28;1369;-73
2023/05/09 00:40:51;;;;;;;334.67;136.32;;;;;;;13.07;100.00;99934.31;345190;28;1140;-73
2023/05/09 00:41:02;;;;;;;334.97;136.00;;;;;;;13.07;100.00;99939.56;341856;28;895;-73
2023/05/09 00:41:12;;;;;;;337.33;137.50;;;;;;;13.00;100.00;99937.22;341908;28;1247;-74
2023/05/09 00:41:22;;;;;;;339.30;138.57;;;;;;;12.95;100.00;99933.97;341363;28;1087;-74
2023/05/09 00:41:33;;;;;;;340.05;139.05;;;;;;;12.95;100.00;99931.34;343107;28;1203;-74
2023/05/09 00:41:43;;;;;;;337.90;139.13;;;;;;;12.97;100.00;99936.53;340838;29;869;-74
2023/05/09 00:41:57;;;;;;;335.15;137.18;;;;;;;13.02;100.00;99931.03;341902;28;1204;-74
2023/05/09 00:42:07;;;;;;;334.83;135.63;;;;;;;13.05;100.00;99933.53;340610;29;1404;-73
2023/05/09 00:42:17;;;;;;;334.13;135.63;;;;;;;13.06;100.00;99937.88;342165;28;1255;-73
2023/05/09 00:42:28;;;;;;;335.40;136.93;;;;;;;13.10;100.00;99935.03;340667;29;1248;-74
2023/05/09 00:42:38;;;;;;;333.50;136.10;;;;;;;13.11;100.00;99941.13;337901;29;988;-75
2023/05/09 00:42:49;;;;;;;333.23;136.20;;;;;;;13.15;100.00;99942.69;336229;29;1319;-74
2023/05/09 00:42:59;;;;;;;334.05;137.57;;;;;;;13.17;100.00;99940.88;335980;28;1549;-74
2023/05/09 00:43:10;;;;;;;335.40;137.10;;;;;;;13.20;100.00;99940.75;340699;29;1245;-74
2023/05/09 00:43:21;;;;;;;335.73;136.18;;;;;;;13.19;100.00;99939.03;338439;29;1305;-74
2023/05/09 00:43:31;;;;;;;332.80;131.80;;;;;;;13.24;100.00;99942.31;337608;29;1629;-74
2023/05/09 00:43:41;;;;;;;331.42;134.07;;;;;;;13.24;100.00;99943.16;333965;29;1402;-74
2023/05/09 00:43:52;;;;;;;332.70;136.37;;;;;;;13.26;100.00;99940.47;335382;29;1321;-74
2023/05/09 00:44:02;;;;;;;333.88;137.52;;;;;;;13.24;100.00;99939.69;336253;29;1080;-74
2023/05/09 00:44:13;;;;;;;334.20;136.50;;;;;;;13.25;100.00;99944.00;336747;29;1242;-74
2023/05/09 00:44:23;;;;;;;331.95;132.95;;;;;;;13.22;100.00;99944.16;336818;29;888;-74
2023/05/09 00:44:33;;;;;;;332.90;134.30;;;;;;;13.16;100.00;99944.44;334317;29;1246;-74
2023/05/09 00:44:44;;;;;;;336.63;134.87;;;;;;;13.15;100.00;99947.97;334256;29;1745;-74
2023/05/09 00:44:54;;;;;;;338.83;139.10;;;;;;;13.13;100.00;99949.81;337634;29;1475;-74
2023/05/09 00:45:05;;;;;;;338.83;140.80;;;;;;;13.15;100.00;99942.69;333951;29;1945;-74
2023/05/09 00:45:16;;;;;;;334.50;139.60;;;;;;;13.16;100.00;99944.44;328404;29;1822;-74
2023/05/09 00:45:26;;;;;;;333.43;138.80;;;;;;;13.17;100.00;99938.25;321941;30;1383;-74
2023/05/09 00:45:37;;;;;;;333.98;136.85;;;;;;;13.17;100.00;99946.16;328491;29;1976;-73
2023/05/09 00:45:47;;;;;;;334.67;135.43;;;;;;;13.19;100.00;99939.03;325377;30;2219;-73
2023/05/09 00:45:57;;;;;;;333.77;134.87;;;;;;;13.17;100.00;99940.88;323012;30;1333;-74
2023/05/09 00:46:08;;;;;;;332.08;134.25;;;;;;;13.10;100.00;99942.06;324133;30;1591;-74
2023/05/09 00:46:18;;;;;;;331.77;135.50;;;;;;;13.11;100.00;99935.88;325255;30;982;-74
2023/05/09 00:46:29;;;;;;;333.13;135.23;;;;;;;13.15;100.00;99947.97;325546;30;1329;-74
2023/05/09 00:46:39;;;;;;;334.63;137.47;;;;;;;13.18;100.00;99943.44;325420;30;1227;-74
2023/05/09 00:46:49;;;;;;;335.95;136.05;;;;;;;13.17;100.00;99946.16;322260;30;1766;-74
2023/05/09 00:47:00;;;;;;;335.83;135.67;;;;;;;13.17;100.00;99946.16;318175;30;1998;-74
2023/05/09 00:47:10;;;;;;;338.35;136.13;;;;;;;13.20;100.00;99946.00;322648;30;1269;-74
2023/05/09 00:47:22;;;;;;;341.40;140.07;;;;;;;13.17;100.00;99943.50;325621;30;2154;-74
2023/05/09 00:47:32;;;;;;;339.50;139.73;;;;;;;13.17;100.00;99946.16;326358;30;2665;-74
2023/05/09 00:47:42;;;;;;;339.63;140.95;;;;;;;13.22;100.00;99949.41;324507;30;970;-74
2023/05/09 00:47:53;;;;;;;339.43;141.10;;;;;;;13.23;100.00;99953.75;327118;30;2638;-74
2023/05/09 00:48:04;;;;;;;339.30;140.45;;;;;;;13.21;100.00;99947.72;322469;30;4023;-74
2023/05/09 00:48:15;;;;;;;337.17;139.33;;;;;;;13.23;100.00;99946.72;320848;30;4851;-74
2023/05/09 00:48:25;;;;;;;337.20;138.63;;;;;;;13.22;100.00;99950.28;319250;30;5006;-74
2023/05/09 00:48:35;;;;;;;341.40;141.57;;;;;;;13.19;100.00;99954.81;320965;30;5038;-74
2023/05/09 00:48:46;;;;;;;340.13;139.55;;;;;;;13.17;100.00;99940.88;320233;30;2085;-74
2023/05/09 00:48:56;;;;;;;334.70;137.77;;;;;;;13.18;100.00;99947.84;318375;31;1534;-74
2023/05/09 00:49:07;;;;;;;332.87;136.23;;;;;;;13.12;100.00;99942.84;312201;31;2754;-74
2023/05/09 00:49:17;;;;;;;334.13;138.10;;;;;;;13.08;100.00;99941.28;311301;31;2989;-74
2023/05/09 00:49:27;;;;;;;335.23;137.43;;;;;;;13.02;100.00;99947.66;310542;31;883;-74
2023/05/09 00:49:38;;;;;;;336.45;135.93;;;;;;;12.92;100.00;99942.00;310723;31;3318;-74
2023/05/09 00:49:48;;;;;;;333.97;133.83;;;;;;;12.92;100.00;99939.38;310386;31;3405;-74
2023/05/09 00:50:00;;;;;;;332.20;133.60;;;;;;;12.93;100.00;99943.69;311416;31;1244;-74
2023/05/09 00:50:10;;;;;;;330.27;133.45;;;;;;;12.94;100.00;99950.66;309579;31;1112;-74
2023/05/09 00:50:20;;;;;;;332.13;134.37;;;;;;;12.95;100.00;99947.13;307275;31;3300;-74
2023/05/09 00:50:31;;;;;;;334.10;134.52;;;;;;;12.93;100.00;99948.97;307738;31;2495;-74
2023/05/09 00:50:41;;;;;;;336.67;136.53;;;;;;;12.86;100.00;99942.28;312957;31;1189;-74
2023/05/09 00:50:52;;;;;;;337.10;136.38;;;;;;;12.90;100.00;99949.09;310026;31;2240;-74
2023/05/09 00:51:03;;;;;;;334.77;135.07;;;;;;;12.87;100.00;99941.34;306264;32;3122;-74
2023/05/09 00:51:14;;;;;;;333.55;132.82;;;;;;;12.90;100.00;99949.09;300052;32;1565;-74
2023/05/09 00:51:24;;;;;;;332.25;133.57;;;;;;;12.87;100.00;99949.22;303388;32;3912;-74
2023/05/09 00:51:35;;;;;;;331.83;133.67;;;;;;;12.80;100.00;99947.78;301259;32;4264;-74
2023/05/09 00:51:46;;;;;;;331.95;133.77;;;;;;;12.80;100.00;99947.78;300150;32;4550;-74
2023/05/09 00:51:56;;;;;;;334.58;135.20;;;;;;;12.84;100.00;99945.88;300036;32;1019;-75
2023/05/09 00:52:07;;;;;;;339.20;138.73;;;;;;;12.86;100.00;99944.91;297879;32;4658;-74